createdAt,value
2019-05-12T00:01:48.096Z,6.35
2019-05-12T00:04:18.712Z,6.17
2019-05-12T00:06:59.270Z,6.23
2019-05-12T00:09:28.253Z,6.16
2019-05-12T00:11:59.122Z,6.14
2019-05-12T00:14:28.253Z,6.11
2019-05-12T00:16:58.132Z,6.11
2019-05-12T00:19:28.526Z,6.15
2019-05-12T00:21:58.691Z,6.09
2019-05-12T00:24:27.961Z,6.01
2019-05-12T00:29:37.786Z,5.92
2019-05-12T00:32:08.463Z,5.83
2019-05-12T00:34:38.467Z,5.78
2019-05-12T00:37:08.304Z,5.73
2019-05-12T00:39:38.259Z,5.76
2019-05-12T00:42:07.796Z,5.57
2019-05-12T00:44:38.913Z,5.60
2019-05-12T00:47:08.158Z,5.60
2019-05-12T00:49:37.905Z,5.58
2019-05-12T00:52:08.068Z,5.46
2019-05-12T00:54:37.578Z,5.43
2019-05-12T00:57:07.733Z,5.43
2019-05-12T00:59:38.252Z,5.45
2019-05-12T01:02:08.011Z,5.44
2019-05-12T01:04:38.128Z,5.48
2019-05-12T01:07:08.514Z,5.48
2019-05-12T01:09:38.439Z,5.44
2019-05-12T01:12:07.933Z,5.50
2019-05-12T01:14:38.250Z,5.48
2019-05-12T01:17:08.254Z,5.51
2019-05-12T01:19:37.469Z,5.47
2019-05-12T01:22:08.105Z,5.39
2019-05-12T01:24:37.904Z,5.43
2019-05-12T01:27:08.497Z,5.48
2019-05-12T01:29:38.435Z,5.41
2019-05-12T01:32:25.401Z,5.45
2019-05-12T01:34:53.665Z,5.49
2019-05-12T01:37:41.041Z,5.45
2019-05-12T01:40:22.399Z,5.51
2019-05-12T01:42:50.656Z,5.51
2019-05-12T01:45:31.132Z,5.54
2019-05-12T01:47:59.517Z,5.46
2019-05-12T01:50:28.338Z,5.40
2019-05-12T01:53:31.384Z,5.35
2019-05-12T01:55:59.666Z,5.39
2019-05-12T01:58:28.005Z,5.38
2019-05-12T02:00:58.674Z,5.37
2019-05-12T02:03:28.470Z,5.31
2019-05-12T02:06:15.464Z,5.25
2019-05-12T02:09:02.841Z,5.22
2019-05-12T02:11:50.224Z,5.13
2019-05-12T02:14:18.506Z,5.12
2019-05-12T02:16:47.731Z,5.19
2019-05-12T02:19:17.800Z,5.21
2019-05-12T02:21:48.741Z,5.21
2019-05-12T02:24:26.769Z,5.24
2019-05-12T02:26:48.649Z,5.10
2019-05-12T02:29:18.322Z,5.12
2019-05-12T02:31:49.806Z,5.08
2019-05-12T02:34:16.745Z,5.16
2019-05-12T02:36:45.137Z,5.16
2019-05-12T02:39:14.840Z,5.14
2019-05-12T02:41:44.856Z,5.08
2019-05-12T02:44:14.962Z,5.12
2019-05-12T02:46:44.698Z,5.07
2019-05-12T02:49:15.504Z,5.15
2019-05-12T02:51:45.531Z,4.98
2019-05-12T02:54:55.595Z,5.01
2019-05-12T02:57:17.281Z,4.94
2019-05-12T03:00:25.580Z,4.94
2019-05-12T03:03:35.260Z,4.96
2019-05-12T03:06:05.451Z,4.98
2019-05-12T03:08:35.017Z,5.01
2019-05-12T03:11:05.963Z,5.02
2019-05-12T03:13:34.699Z,4.99
2019-05-12T03:16:04.926Z,4.95
2019-05-12T03:18:34.720Z,5.00
2019-05-12T03:21:05.579Z,4.95
2019-05-12T03:23:35.196Z,4.94
2019-05-12T03:26:05.139Z,4.95
2019-05-12T03:28:35.578Z,4.96
2019-05-12T03:31:07.666Z,4.80
2019-05-12T03:33:41.981Z,4.84
2019-05-12T03:36:09.194Z,4.77
2019-05-12T03:38:36.053Z,4.84
2019-05-12T03:41:05.295Z,4.81
2019-05-12T03:43:35.120Z,4.84
2019-05-12T03:46:05.206Z,4.92
2019-05-12T03:48:34.944Z,5.01
2019-05-12T03:51:05.698Z,4.86
2019-05-12T03:53:55.652Z,4.89
2019-05-12T03:56:25.978Z,4.89
2019-05-12T03:58:54.091Z,4.98
2019-05-12T04:04:24.672Z,4.96
2019-05-12T04:06:54.385Z,4.99
2019-05-12T04:09:24.611Z,5.05
2019-05-12T04:11:54.749Z,5.08
2019-05-12T04:14:25.235Z,5.08
2019-05-12T04:16:55.030Z,5.22
2019-05-12T04:19:24.879Z,5.17
2019-05-12T04:21:54.688Z,5.23
2019-05-12T04:24:24.956Z,5.15
2019-05-12T04:26:55.167Z,5.04
2019-05-12T04:29:25.019Z,5.00
2019-05-12T04:31:54.388Z,5.08
2019-05-12T04:34:25.116Z,5.08
2019-05-12T04:36:55.434Z,5.04
2019-05-12T04:39:25.314Z,5.15
2019-05-12T04:41:55.177Z,5.35
2019-05-12T04:44:25.134Z,5.32
2019-05-12T04:46:55.431Z,5.44
2019-05-12T04:49:25.034Z,5.56
2019-05-12T04:51:54.581Z,5.64
2019-05-12T04:54:24.708Z,5.61
2019-05-12T04:56:55.132Z,5.76
2019-05-12T04:59:25.366Z,5.98
2019-05-12T05:01:54.064Z,6.18
2019-05-12T05:04:24.412Z,6.40
2019-05-12T05:06:55.082Z,6.23
2019-05-12T05:09:24.596Z,6.58
2019-05-12T05:11:54.296Z,6.71
2019-05-12T05:14:24.816Z,6.93
2019-05-12T05:16:54.215Z,7.02
2019-05-12T05:19:24.436Z,7.22
2019-05-12T05:21:54.205Z,7.20
2019-05-12T05:24:23.510Z,7.46
2019-05-12T05:26:53.913Z,7.61
2019-05-12T05:29:24.028Z,7.48
2019-05-12T05:31:53.466Z,7.63
2019-05-12T05:34:23.591Z,7.50
2019-05-12T05:36:57.151Z,7.57
2019-05-12T05:39:24.284Z,7.43
2019-05-12T05:41:53.798Z,7.53
2019-05-12T05:44:24.032Z,7.54
2019-05-12T05:46:54.631Z,7.72
2019-05-12T05:49:23.845Z,8.01
2019-05-12T05:51:57.196Z,7.94
2019-05-12T05:54:31.070Z,8.15
2019-05-12T05:56:59.643Z,8.20
2019-05-12T05:59:31.162Z,8.40
2019-05-12T06:01:54.912Z,8.40
2019-05-12T06:04:23.783Z,8.40
2019-05-12T06:06:55.718Z,8.41
2019-05-12T06:09:23.547Z,8.68
2019-05-12T06:11:54.158Z,8.55
2019-05-12T06:14:23.551Z,8.40
2019-05-12T06:16:53.752Z,8.64
2019-05-12T06:19:25.968Z,8.74
2019-05-12T06:21:53.439Z,8.71
2019-05-12T06:24:34.809Z,8.68
2019-05-12T06:27:14.377Z,8.86
2019-05-12T06:29:33.422Z,8.83
2019-05-12T06:32:06.226Z,8.88
2019-05-12T06:34:34.274Z,9.04
2019-05-12T06:37:11.829Z,9.21
2019-05-12T06:39:34.333Z,9.22
2019-05-12T06:42:12.645Z,9.17
2019-05-12T06:44:33.529Z,9.20
2019-05-12T06:47:08.023Z,9.52
2019-05-12T06:49:33.693Z,9.37
2019-05-12T06:52:06.778Z,9.48
2019-05-12T06:54:33.597Z,9.81
2019-05-12T06:57:18.541Z,9.95
2019-05-12T06:59:33.909Z,9.91
2019-05-12T07:02:03.450Z,9.98
2019-05-12T07:04:33.987Z,10.02
2019-05-12T07:07:03.605Z,10.09
2019-05-12T07:09:35.365Z,10.00
2019-05-12T07:12:06.990Z,10.03
2019-05-12T07:14:34.549Z,10.07
2019-05-12T07:19:43.954Z,10.48
2019-05-12T07:22:21.762Z,10.60
2019-05-12T07:24:50.076Z,10.70
2019-05-12T07:27:13.940Z,10.78
2019-05-12T07:29:54.514Z,10.63
2019-05-12T07:32:24.598Z,10.63
2019-05-12T07:34:54.407Z,11.12
2019-05-12T07:38:04.644Z,11.12
2019-05-12T07:40:36.744Z,11.01
2019-05-12T07:43:44.322Z,11.12
2019-05-12T07:46:13.515Z,11.19
2019-05-12T07:48:46.569Z,11.20
2019-05-12T07:51:30.412Z,11.20
2019-05-12T07:53:58.924Z,11.08
2019-05-12T07:56:32.392Z,11.22
2019-05-12T07:58:57.231Z,11.29
2019-05-12T08:01:25.715Z,11.58
2019-05-12T08:03:57.158Z,11.81
2019-05-12T08:06:24.486Z,11.82
2019-05-12T08:08:58.703Z,11.70
2019-05-12T08:11:28.668Z,11.86
2019-05-12T08:13:54.293Z,11.87
2019-05-12T08:16:25.625Z,12.00
2019-05-12T08:18:54.005Z,12.26
2019-05-12T08:21:24.208Z,11.91
2019-05-12T08:23:53.455Z,12.07
2019-05-12T08:26:23.874Z,12.24
2019-05-12T08:28:53.497Z,12.17
2019-05-12T08:31:23.421Z,11.81
2019-05-12T08:33:53.802Z,11.50
2019-05-12T08:36:23.664Z,11.71
2019-05-12T08:38:53.598Z,11.96
2019-05-12T08:41:23.478Z,12.10
2019-05-12T08:43:57.509Z,12.36
2019-05-12T08:46:24.390Z,12.62
2019-05-12T08:49:14.196Z,12.75
2019-05-12T08:51:44.121Z,12.75
2019-05-12T08:54:14.067Z,12.50
2019-05-12T08:56:43.600Z,12.78
2019-05-12T08:59:17.450Z,12.48
2019-05-12T09:01:43.691Z,12.68
2019-05-12T09:04:17.329Z,12.30
2019-05-12T09:06:43.460Z,12.64
2019-05-12T09:09:13.849Z,12.97
2019-05-12T09:11:43.874Z,13.00
2019-05-12T09:14:14.444Z,13.11
2019-05-12T09:16:43.830Z,13.39
2019-05-12T09:19:16.237Z,13.40
2019-05-12T09:21:44.055Z,13.69
2019-05-12T09:24:13.660Z,13.41
2019-05-12T09:26:43.382Z,13.14
2019-05-12T09:29:13.828Z,12.75
2019-05-12T09:31:43.913Z,13.11
2019-05-12T09:34:14.176Z,13.38
2019-05-12T09:36:43.777Z,13.81
2019-05-12T09:39:14.085Z,13.73
2019-05-12T09:41:46.475Z,13.87
2019-05-12T09:44:13.353Z,13.92
2019-05-12T09:46:43.920Z,14.01
2019-05-12T09:49:11.758Z,14.18
2019-05-12T09:51:42.929Z,14.33
2019-05-12T09:54:10.028Z,13.79
2019-05-12T09:56:41.119Z,13.54
2019-05-12T09:59:20.840Z,13.91
2019-05-12T10:01:39.656Z,13.76
2019-05-12T10:04:10.497Z,14.00
2019-05-12T10:06:38.277Z,13.99
2019-05-12T10:09:49.236Z,14.06
2019-05-12T10:12:16.594Z,14.08
2019-05-12T10:14:45.985Z,13.95
2019-05-12T10:17:14.869Z,13.87
2019-05-12T10:19:43.452Z,13.89
2019-05-12T10:24:55.943Z,14.51
2019-05-12T10:27:35.109Z,14.14
2019-05-12T10:30:17.300Z,14.65
2019-05-12T10:32:45.221Z,14.42
2019-05-12T10:35:54.244Z,14.11
2019-05-12T10:38:24.229Z,14.18
2019-05-12T10:40:53.816Z,14.55
2019-05-12T10:43:23.685Z,14.56
2019-05-12T10:45:53.776Z,14.48
2019-05-12T10:48:23.363Z,14.13
2019-05-12T10:50:53.587Z,14.28
2019-05-12T10:53:23.546Z,14.46
2019-05-12T10:55:54.070Z,14.32
2019-05-12T10:58:24.426Z,14.34
2019-05-12T11:00:53.709Z,14.41
2019-05-12T11:03:24.372Z,14.67
2019-05-12T11:05:56.674Z,14.66
2019-05-12T11:08:24.524Z,14.77
2019-05-12T11:10:59.250Z,14.83
2019-05-12T11:13:23.326Z,14.68
2019-05-12T11:15:54.367Z,13.92
2019-05-12T11:18:26.147Z,13.72
2019-05-12T11:20:54.171Z,14.32
2019-05-12T11:23:24.248Z,14.61
2019-05-12T11:25:53.369Z,14.75
2019-05-12T11:28:24.278Z,14.84
2019-05-12T11:30:52.175Z,14.80
2019-05-12T11:33:20.473Z,14.35
2019-05-12T11:38:37.672Z,14.35
2019-05-12T11:41:10.164Z,14.68
2019-05-12T11:43:35.949Z,14.64
2019-05-12T11:46:04.213Z,14.83
2019-05-12T11:48:33.855Z,14.95
2019-05-12T11:51:03.887Z,15.01
2019-05-12T11:53:34.882Z,15.17
2019-05-12T11:56:07.472Z,15.35
2019-05-12T11:58:33.543Z,15.00
2019-05-12T12:03:51.413Z,14.67
2019-05-12T12:06:19.686Z,14.68
2019-05-12T12:08:47.959Z,14.29
2019-05-12T12:11:21.961Z,14.75
2019-05-12T12:13:46.207Z,14.44
2019-05-12T12:16:14.475Z,14.60
2019-05-12T12:18:46.597Z,14.99
2019-05-12T12:21:14.254Z,14.96
2019-05-12T12:23:48.781Z,15.04
2019-05-12T12:34:36.218Z,15.72
2019-05-12T12:37:04.492Z,15.48
2019-05-12T12:39:32.775Z,15.55
2019-05-12T12:42:01.056Z,13.97
2019-05-12T12:44:29.328Z,14.17
2019-05-12T12:47:00.487Z,14.85
2019-05-12T12:49:29.499Z,14.49
2019-05-12T12:51:57.651Z,14.99
2019-05-12T12:54:26.185Z,15.02
2019-05-12T12:56:54.464Z,14.75
2019-05-12T12:59:24.033Z,15.07
2019-05-12T13:01:52.776Z,15.21
2019-05-12T13:04:21.063Z,15.58
2019-05-12T13:06:49.346Z,15.60
2019-05-12T13:09:24.151Z,15.59
2019-05-12T13:11:47.659Z,15.56
2019-05-12T13:14:15.936Z,15.47
2019-05-12T13:16:44.192Z,15.42
2019-05-12T13:19:16.875Z,15.36
2019-05-12T13:21:43.917Z,15.20
2019-05-12T13:24:12.483Z,15.07
2019-05-12T13:26:40.746Z,15.21
2019-05-12T13:29:09.263Z,15.22
2019-05-12T13:31:41.004Z,15.47
2019-05-12T13:34:07.551Z,15.31
2019-05-12T13:36:39.220Z,15.48
2019-05-12T13:39:40.052Z,15.54
2019-05-12T13:42:10.273Z,15.52
2019-05-12T13:44:40.514Z,15.69
2019-05-12T13:47:08.308Z,15.96
2019-05-12T13:49:42.723Z,15.54
2019-05-12T13:52:46.604Z,15.78
2019-05-12T13:55:14.941Z,15.20
2019-05-12T13:57:52.005Z,15.40
2019-05-12T14:00:14.110Z,15.83
2019-05-12T14:02:44.133Z,16.17
2019-05-12T14:05:15.007Z,15.92
2019-05-12T14:07:43.779Z,15.90
2019-05-12T14:10:53.461Z,15.54
2019-05-12T14:13:17.051Z,15.06
2019-05-12T14:15:45.347Z,14.78
2019-05-12T14:18:18.422Z,14.48
2019-05-12T14:20:45.185Z,14.78
2019-05-12T14:23:14.544Z,14.78
2019-05-12T14:25:43.944Z,14.86
2019-05-12T14:28:16.558Z,15.05
2019-05-12T14:31:30.117Z,14.87
2019-05-12T14:33:54.003Z,14.94
2019-05-12T14:36:26.704Z,14.99
2019-05-12T14:38:53.963Z,15.07
2019-05-12T14:41:26.314Z,15.12
2019-05-12T14:43:53.538Z,15.07
2019-05-12T14:46:24.093Z,15.55
2019-05-12T14:48:54.284Z,15.56
2019-05-12T14:51:24.426Z,15.24
2019-05-12T14:53:53.539Z,15.21
2019-05-12T14:56:23.361Z,15.40
2019-05-12T14:58:56.509Z,15.36
2019-05-12T15:02:05.655Z,14.90
2019-05-12T15:04:32.225Z,15.22
2019-05-12T15:07:08.109Z,14.77
2019-05-12T15:09:30.541Z,14.91
2019-05-12T15:11:58.795Z,15.08
2019-05-12T15:14:32.598Z,15.25
2019-05-12T15:16:57.072Z,15.38
2019-05-12T15:19:29.669Z,15.35
2019-05-12T15:21:55.339Z,15.23
2019-05-12T15:24:24.575Z,14.94
2019-05-12T15:26:57.469Z,14.77
2019-05-12T15:29:23.852Z,14.79
2019-05-12T15:31:55.952Z,14.55
2019-05-12T15:34:23.722Z,14.73
2019-05-12T15:36:56.056Z,14.95
2019-05-12T15:39:22.231Z,14.81
2019-05-12T15:41:51.124Z,14.68
2019-05-12T15:44:24.820Z,14.55
2019-05-12T15:46:50.480Z,14.55
2019-05-12T15:51:58.555Z,14.12
2019-05-12T15:54:30.801Z,14.06
2019-05-12T15:56:57.712Z,13.97
2019-05-12T15:59:25.979Z,13.97
2019-05-12T16:02:07.582Z,14.12
2019-05-12T16:04:24.242Z,14.02
2019-05-12T16:06:55.426Z,13.77
2019-05-12T16:09:35.892Z,13.80
2019-05-12T16:12:09.436Z,13.70
2019-05-12T16:14:54.121Z,13.95
2019-05-12T16:17:24.993Z,13.95
2019-05-12T16:19:54.102Z,13.60
2019-05-12T16:22:45.175Z,13.49
2019-05-12T16:25:15.146Z,13.68
2019-05-12T16:27:44.402Z,13.56
2019-05-12T16:30:47.430Z,13.55
2019-05-12T16:33:20.508Z,13.58
2019-05-12T16:35:45.920Z,13.51
2019-05-12T16:38:35.387Z,13.35
2019-05-12T16:41:03.909Z,13.47
2019-05-12T16:43:35.092Z,13.36
2019-05-12T16:46:04.378Z,13.31
2019-05-12T16:48:36.180Z,13.38
2019-05-12T16:51:03.706Z,13.41
2019-05-12T16:53:34.031Z,13.23
2019-05-12T16:56:04.220Z,13.23
2019-05-12T16:58:35.129Z,13.02
2019-05-12T17:01:03.813Z,13.10
2019-05-12T17:03:34.189Z,13.13
2019-05-12T17:06:03.585Z,13.13
2019-05-12T17:08:34.363Z,12.94
2019-05-12T17:11:21.692Z,13.08
2019-05-12T17:13:34.043Z,13.08
2019-05-12T17:16:04.337Z,13.12
2019-05-12T17:18:33.986Z,12.95
2019-05-12T17:21:04.281Z,12.77
2019-05-12T17:23:32.477Z,12.85
2019-05-12T17:26:00.751Z,12.56
2019-05-12T17:28:29.043Z,12.72
2019-05-12T17:30:57.351Z,12.63
2019-05-12T17:33:27.677Z,12.53
2019-05-12T17:35:55.624Z,12.40
2019-05-12T17:38:25.216Z,12.30
2019-05-12T17:40:56.467Z,12.32
2019-05-12T17:43:24.332Z,12.31
2019-05-12T17:45:59.534Z,12.24
2019-05-12T17:48:23.439Z,11.94
2019-05-12T17:50:53.933Z,11.98
2019-05-12T17:53:36.036Z,11.95
2019-05-12T17:56:04.975Z,11.96
2019-05-12T17:58:36.134Z,11.89
2019-05-12T18:01:03.779Z,11.85
2019-05-12T18:03:34.153Z,11.87
2019-05-12T18:06:04.146Z,11.77
2019-05-12T18:08:33.142Z,11.77
2019-05-12T18:11:03.778Z,11.70
2019-05-12T18:13:34.254Z,11.57
2019-05-12T18:16:05.590Z,11.25
2019-05-12T18:18:35.666Z,11.39
2019-05-12T18:21:03.589Z,11.46
2019-05-12T18:23:34.373Z,11.14
2019-05-12T18:26:10.920Z,11.14
2019-05-12T18:28:33.454Z,11.06
2019-05-12T18:31:04.397Z,11.06
2019-05-12T18:33:36.727Z,11.02
2019-05-12T18:36:03.896Z,10.88
2019-05-12T18:38:35.194Z,10.90
2019-05-12T18:41:03.565Z,11.01
2019-05-12T18:43:34.399Z,10.92
2019-05-12T18:46:06.336Z,10.88
2019-05-12T18:48:34.292Z,10.85
2019-05-12T18:51:11.589Z,10.72
2019-05-12T18:53:34.973Z,10.75
2019-05-12T18:56:04.600Z,10.65
2019-05-12T18:58:33.374Z,10.62
2019-05-12T19:03:47.876Z,10.41
2019-05-12T19:06:13.889Z,10.34
2019-05-12T19:08:41.513Z,10.30
2019-05-12T19:11:21.883Z,10.05
2019-05-12T19:13:43.161Z,10.07
2019-05-12T19:16:11.433Z,10.03
2019-05-12T19:18:39.835Z,10.00
2019-05-12T19:21:10.243Z,10.02
2019-05-12T19:23:38.290Z,9.99
2019-05-12T19:26:06.547Z,9.97
2019-05-12T19:28:34.836Z,10.07
2019-05-12T19:31:06.164Z,9.98
2019-05-12T19:33:33.119Z,9.94
2019-05-12T19:36:05.429Z,9.87
2019-05-12T19:38:31.403Z,9.92
2019-05-12T19:41:00.867Z,9.84
2019-05-12T19:43:29.640Z,9.57
2019-05-12T19:46:03.177Z,9.29
2019-05-12T19:48:27.891Z,9.16
2019-05-12T19:50:57.248Z,9.14
2019-05-12T19:53:26.194Z,9.29
2019-05-12T19:55:54.453Z,9.18
2019-05-12T19:58:23.815Z,9.16
2019-05-12T20:00:54.280Z,8.94
2019-05-12T20:03:24.164Z,9.03
2019-05-12T20:05:53.826Z,9.08
2019-05-12T20:08:22.680Z,8.98
2019-05-12T20:10:50.943Z,8.91
2019-05-12T20:13:19.240Z,8.97
2019-05-12T20:15:47.513Z,8.97
2019-05-12T20:18:15.799Z,8.95
2019-05-12T20:20:44.784Z,8.94
2019-05-12T20:23:14.376Z,8.86
2019-05-12T20:25:44.412Z,8.78
2019-05-12T20:28:14.613Z,8.78
2019-05-12T20:30:44.199Z,8.71
2019-05-12T20:33:13.678Z,8.67
2019-05-12T20:35:45.179Z,8.52
2019-05-12T20:38:14.915Z,8.48
2019-05-12T20:40:43.243Z,8.51
2019-05-12T20:43:14.781Z,8.54
2019-05-12T20:45:42.455Z,8.44
2019-05-12T20:48:10.694Z,8.35
2019-05-12T20:50:39.050Z,8.30
2019-05-12T20:53:07.299Z,8.27
2019-05-12T20:55:41.034Z,8.29
2019-05-12T20:58:05.568Z,8.20
2019-05-12T21:00:33.854Z,8.23
2019-05-12T21:03:04.457Z,7.94
2019-05-12T21:05:34.388Z,8.06
2019-05-12T21:08:11.458Z,8.11
2019-05-12T21:10:34.224Z,8.01
2019-05-12T21:13:03.815Z,8.02
2019-05-12T21:15:37.429Z,7.87
2019-05-12T21:18:06.873Z,7.90
2019-05-12T21:20:33.673Z,7.60
2019-05-12T21:23:02.043Z,7.60
2019-05-12T21:25:30.311Z,7.50
2019-05-12T21:28:02.473Z,7.67
2019-05-12T21:30:28.579Z,7.70
2019-05-12T21:33:01.366Z,7.61
2019-05-12T21:35:33.753Z,7.40
2019-05-12T21:37:56.827Z,7.31
2019-05-12T21:40:30.326Z,7.34
2019-05-12T21:42:55.094Z,7.28
2019-05-12T21:45:26.593Z,7.45
2019-05-12T21:47:54.500Z,7.52
2019-05-12T21:50:32.180Z,7.47
2019-05-12T21:52:59.510Z,7.41
2019-05-12T21:55:26.322Z,7.17
2019-05-12T21:57:53.983Z,7.03
2019-05-12T22:01:05.108Z,6.96
2019-05-12T22:03:33.494Z,7.02
2019-05-12T22:06:06.343Z,6.89
2019-05-12T22:08:33.845Z,7.00
2019-05-12T22:11:09.639Z,6.98
2019-05-12T22:13:32.215Z,6.93
2019-05-12T22:16:00.478Z,6.82
2019-05-12T22:18:28.741Z,6.85
2019-05-12T22:21:01.314Z,6.90
2019-05-12T22:23:27.077Z,6.86
2019-05-12T22:25:59.961Z,6.97
2019-05-12T22:28:25.350Z,6.88
2019-05-12T22:30:54.181Z,6.80
2019-05-12T22:33:24.258Z,6.72
2019-05-12T22:36:02.819Z,6.54
2019-05-12T22:38:24.707Z,6.65
2019-05-12T22:40:56.081Z,6.73
2019-05-12T22:43:23.890Z,6.80
2019-05-12T22:45:54.686Z,6.77
2019-05-12T22:48:23.569Z,6.72
2019-05-12T22:50:54.808Z,6.82
2019-05-12T22:53:25.694Z,6.71
2019-05-12T22:55:53.460Z,6.79
2019-05-12T22:58:25.179Z,6.69
2019-05-12T23:01:00.888Z,6.61
2019-05-12T23:03:22.285Z,6.54
2019-05-12T23:05:56.385Z,6.58
2019-05-12T23:08:20.561Z,6.51
2019-05-12T23:10:51.884Z,6.47
2019-05-12T23:13:18.817Z,6.53
2019-05-12T23:15:49.376Z,6.36
2019-05-12T23:18:19.519Z,6.32
2019-05-12T23:20:47.147Z,6.35
2019-05-12T23:23:18.713Z,6.29
2019-05-12T23:25:45.394Z,6.24
2019-05-12T23:28:13.658Z,6.04
2019-05-12T23:30:43.760Z,5.93
2019-05-12T23:33:13.940Z,5.93
2019-05-12T23:35:44.200Z,6.11
2019-05-12T23:38:19.310Z,6.00
2019-05-12T23:40:43.352Z,6.13
2019-05-12T23:43:14.327Z,6.14
2019-05-12T23:45:44.309Z,6.01
2019-05-12T23:48:13.614Z,5.98
2019-05-12T23:50:43.834Z,5.87
2019-05-12T23:53:14.008Z,5.87
2019-05-12T23:55:43.770Z,5.78
2019-05-12T23:58:14.246Z,5.87
